createdAt,value
2019-01-31T00:00:11.713Z,59.80
2019-01-31T00:02:45.896Z,60.00
2019-01-31T00:05:23.262Z,59.90
2019-01-31T00:08:09.995Z,59.90
2019-01-31T00:10:47.234Z,59.80
2019-01-31T00:13:39.831Z,58.60
2019-01-31T00:16:16.931Z,59.60
2019-01-31T00:18:51.417Z,58.40
2019-01-31T00:21:34.718Z,59.40
2019-01-31T00:24:15.148Z,58.90
2019-01-31T00:26:46.723Z,59.40
2019-01-31T00:29:33.106Z,59.20
2019-01-31T00:32:16.651Z,58.50
2019-01-31T00:35:08.007Z,60.00
2019-01-31T00:38:00.694Z,59.30
2019-01-31T00:40:47.400Z,60.00
2019-01-31T00:43:27.574Z,60.00
2019-01-31T00:46:05.166Z,60.00
2019-01-31T00:48:53.395Z,59.90
2019-01-31T00:51:33.658Z,59.30
2019-01-31T00:54:13.502Z,60.00
2019-01-31T00:57:00.244Z,60.00
2019-01-31T00:59:49.556Z,59.50
2019-01-31T01:02:21.308Z,60.00
2019-01-31T01:05:04.621Z,60.10
2019-01-31T01:07:44.978Z,60.30
2019-01-31T01:10:31.823Z,60.30
2019-01-31T01:13:15.083Z,59.50
2019-01-31T01:16:06.345Z,60.10
2019-01-31T01:18:59.215Z,60.10
2019-01-31T01:21:42.676Z,59.40
2019-01-31T01:24:14.176Z,59.90
2019-01-31T01:26:51.376Z,59.60
2019-01-31T01:29:28.387Z,59.80
2019-01-31T01:32:02.818Z,59.70
2019-01-31T01:34:34.347Z,59.60
2019-01-31T01:37:24.206Z,58.80
2019-01-31T01:40:04.886Z,59.30
2019-01-31T01:42:54.754Z,59.30
2019-01-31T01:45:53.815Z,59.40
2019-01-31T01:48:27.990Z,59.50
2019-01-31T01:51:02.456Z,59.60
2019-01-31T01:53:42.810Z,58.90
2019-01-31T01:56:30.616Z,59.70
2019-01-31T01:59:33.820Z,59.80
2019-01-31T02:02:17.416Z,58.50
2019-01-31T02:05:08.502Z,59.20
2019-01-31T02:07:48.647Z,59.90
2019-01-31T02:10:25.970Z,59.30
2019-01-31T02:13:19.602Z,59.70
2019-01-31T02:15:56.928Z,60.00
2019-01-31T02:18:34.444Z,59.30
2019-01-31T02:21:23.042Z,59.70
2019-01-31T02:24:00.394Z,59.70
2019-01-31T02:26:48.422Z,59.50
2019-01-31T02:29:40.787Z,59.40
2019-01-31T02:32:24.095Z,59.30
2019-01-31T02:35:15.341Z,59.20
2019-01-31T02:38:04.655Z,59.30
2019-01-31T02:41:11.754Z,58.20
2019-01-31T02:44:20.279Z,58.20
2019-01-31T02:47:27.645Z,58.30
2019-01-31T02:50:36.164Z,57.70
2019-01-31T02:53:43.287Z,57.40
2019-01-31T02:56:50.447Z,57.50
2019-01-31T02:59:57.538Z,58.20
2019-01-31T03:02:38.621Z,56.70
2019-01-31T03:05:19.644Z,56.50
2019-01-31T03:08:00.699Z,56.80
2019-01-31T03:10:41.513Z,57.80
2019-01-31T03:13:22.402Z,57.50
2019-01-31T03:16:03.501Z,56.30
2019-01-31T03:18:44.575Z,55.70
2019-01-31T03:21:25.597Z,56.60
2019-01-31T03:24:06.744Z,56.30
2019-01-31T03:26:47.865Z,57.10
2019-01-31T03:29:28.324Z,56.80
2019-01-31T03:32:09.126Z,57.10
2019-01-31T03:34:49.963Z,57.00
2019-01-31T03:37:30.639Z,56.90
2019-01-31T03:40:11.504Z,57.20
2019-01-31T03:42:52.536Z,57.10
2019-01-31T03:45:33.468Z,57.10
2019-01-31T03:48:14.181Z,56.10
2019-01-31T03:50:54.849Z,56.40
2019-01-31T03:53:35.463Z,55.80
2019-01-31T03:59:07.640Z,55.00
2019-01-31T04:01:48.400Z,56.70
2019-01-31T04:04:29.443Z,55.90
2019-01-31T04:07:09.921Z,56.70
2019-01-31T04:09:50.655Z,55.80
2019-01-31T04:12:31.327Z,55.90
2019-01-31T04:15:12.263Z,55.80
2019-01-31T04:17:53.029Z,56.00
2019-01-31T04:20:33.568Z,56.20
2019-01-31T04:23:14.191Z,56.20
2019-01-31T04:25:54.611Z,55.70
2019-01-31T04:28:35.632Z,55.40
2019-01-31T04:31:16.561Z,56.20
2019-01-31T04:33:57.122Z,57.00
2019-01-31T04:36:37.985Z,56.80
2019-01-31T04:39:18.720Z,55.70
2019-01-31T04:41:59.232Z,56.50
2019-01-31T04:44:39.906Z,54.90
2019-01-31T04:47:20.380Z,54.90
2019-01-31T04:50:01.055Z,56.20
2019-01-31T04:52:41.829Z,55.90
2019-01-31T04:55:22.727Z,56.70
2019-01-31T04:58:03.433Z,56.50
2019-01-31T05:00:44.265Z,56.10
2019-01-31T05:03:24.782Z,57.10
2019-01-31T05:06:05.570Z,56.00
2019-01-31T05:08:46.585Z,56.90
2019-01-31T05:11:27.336Z,55.90
2019-01-31T05:14:07.738Z,55.40
2019-01-31T05:16:48.252Z,55.80
2019-01-31T05:19:28.587Z,56.90
2019-01-31T05:22:08.999Z,56.10
2019-01-31T05:24:49.726Z,56.60
2019-01-31T05:27:30.382Z,55.20
2019-01-31T05:30:10.882Z,55.00
2019-01-31T05:32:51.546Z,55.80
2019-01-31T05:35:32.628Z,55.60
2019-01-31T05:38:13.208Z,56.30
2019-01-31T05:40:41.634Z,56.50
2019-01-31T05:43:29.428Z,56.30
2019-01-31T05:46:18.436Z,55.70
2019-01-31T05:49:06.740Z,55.20
2019-01-31T05:52:06.272Z,55.80
2019-01-31T05:54:44.101Z,54.80
2019-01-31T05:57:31.883Z,55.40
2019-01-31T06:00:13.108Z,55.30
2019-01-31T06:02:54.048Z,54.50
2019-01-31T06:05:34.676Z,55.40
2019-01-31T06:08:15.359Z,54.30
2019-01-31T06:13:39.410Z,54.20
2019-01-31T06:16:27.204Z,54.90
2019-01-31T06:19:15.011Z,55.80
2019-01-31T06:22:02.779Z,55.00
2019-01-31T06:24:50.586Z,55.30
2019-01-31T06:27:38.479Z,54.60
2019-01-31T06:30:26.321Z,53.80
2019-01-31T06:33:14.093Z,53.30
2019-01-31T06:36:01.888Z,53.90
2019-01-31T06:38:49.783Z,54.10
2019-01-31T06:41:37.554Z,54.10
2019-01-31T06:44:25.461Z,55.20
2019-01-31T06:47:13.237Z,56.30
2019-01-31T06:50:01.213Z,55.50
2019-01-31T06:52:49.042Z,55.30
2019-01-31T06:55:36.833Z,56.10
2019-01-31T06:58:24.660Z,56.20
2019-01-31T07:01:05.399Z,57.00
2019-01-31T07:03:45.966Z,56.90
2019-01-31T07:06:26.592Z,56.20
2019-01-31T07:09:07.533Z,55.80
2019-01-31T07:11:48.502Z,56.90
2019-01-31T07:14:29.110Z,56.40
2019-01-31T07:17:10.067Z,57.30
2019-01-31T07:19:50.740Z,57.30
2019-01-31T07:22:31.739Z,56.90
2019-01-31T07:25:12.344Z,57.10
2019-01-31T07:27:53.204Z,56.40
2019-01-31T07:30:34.016Z,56.10
2019-01-31T07:33:14.864Z,55.90
2019-01-31T07:35:55.473Z,56.70
2019-01-31T07:38:35.984Z,56.40
2019-01-31T07:41:16.778Z,57.40
2019-01-31T07:43:57.571Z,57.50
2019-01-31T07:46:38.395Z,57.90
2019-01-31T07:49:18.938Z,57.00
2019-01-31T07:51:59.733Z,57.70
2019-01-31T07:54:40.323Z,58.70
2019-01-31T07:57:21.130Z,58.80
2019-01-31T08:00:02.192Z,58.80
2019-01-31T08:02:42.819Z,58.90
2019-01-31T08:05:23.856Z,60.40
2019-01-31T08:08:04.906Z,60.00
2019-01-31T08:10:45.172Z,59.50
2019-01-31T08:16:08.944Z,59.60
2019-01-31T08:18:49.939Z,60.70
2019-01-31T08:21:30.426Z,60.30
2019-01-31T08:26:56.002Z,60.50
2019-01-31T08:29:37.056Z,60.50
2019-01-31T08:32:17.852Z,61.40
2019-01-31T08:34:58.517Z,61.30
2019-01-31T08:37:39.298Z,59.80
2019-01-31T08:40:19.822Z,61.10
2019-01-31T08:43:00.622Z,62.60
2019-01-31T08:45:41.042Z,62.50
2019-01-31T08:48:21.596Z,62.40
2019-01-31T08:51:02.642Z,63.50
2019-01-31T08:53:43.637Z,63.00
2019-01-31T08:56:24.496Z,62.70
2019-01-31T08:59:04.969Z,63.10
2019-01-31T09:01:45.614Z,62.20
2019-01-31T09:04:26.293Z,62.40
2019-01-31T09:07:07.027Z,62.00
2019-01-31T09:09:47.960Z,61.20
2019-01-31T09:12:28.667Z,61.20
2019-01-31T09:15:09.563Z,60.70
2019-01-31T09:17:50.215Z,60.60
2019-01-31T09:20:30.725Z,60.20
2019-01-31T09:23:11.653Z,60.60
2019-01-31T09:25:51.964Z,61.50
2019-01-31T09:28:32.654Z,60.60
2019-01-31T09:31:13.563Z,60.60
2019-01-31T09:33:54.183Z,60.40
2019-01-31T09:36:35.363Z,60.00
2019-01-31T09:39:15.753Z,60.90
2019-01-31T09:41:56.360Z,59.70
2019-01-31T09:44:37.157Z,59.40
2019-01-31T09:47:17.618Z,59.60
2019-01-31T09:49:58.260Z,59.40
2019-01-31T09:52:39.226Z,60.00
2019-01-31T09:55:19.926Z,59.40
2019-01-31T09:58:00.392Z,59.20
2019-01-31T10:00:41.360Z,59.50
2019-01-31T10:03:22.006Z,59.70
2019-01-31T10:06:02.485Z,59.40
2019-01-31T10:09:09.677Z,59.20
2019-01-31T10:12:18.307Z,59.90
2019-01-31T10:15:25.474Z,59.90
2019-01-31T10:18:32.626Z,58.70
2019-01-31T10:21:39.817Z,58.70
2019-01-31T10:24:47.007Z,59.40
2019-01-31T10:27:54.197Z,59.30
2019-01-31T10:31:01.354Z,60.70
2019-01-31T10:34:08.471Z,60.10
2019-01-31T10:37:17.089Z,59.70
2019-01-31T10:40:17.265Z,59.80
2019-01-31T10:43:24.611Z,60.70
2019-01-31T10:48:47.892Z,60.20
2019-01-31T10:54:12.066Z,60.90
2019-01-31T10:56:52.983Z,62.10
2019-01-31T10:59:34.028Z,61.80
2019-01-31T11:02:41.222Z,61.60
2019-01-31T11:05:48.415Z,61.60
2019-01-31T11:08:55.538Z,61.70
2019-01-31T11:12:04.036Z,61.40
2019-01-31T11:15:11.143Z,62.00
2019-01-31T11:18:18.415Z,61.80
2019-01-31T11:21:25.504Z,61.90
2019-01-31T11:24:36.975Z,62.10
2019-01-31T11:27:44.087Z,62.20
2019-01-31T11:30:33.520Z,63.60
2019-01-31T11:33:22.886Z,63.70
2019-01-31T11:36:30.008Z,63.90
2019-01-31T11:39:37.119Z,63.80
2019-01-31T11:42:44.221Z,62.30
2019-01-31T11:45:51.340Z,62.80
2019-01-31T11:48:58.474Z,63.70
2019-01-31T11:52:05.687Z,62.00
2019-01-31T11:54:46.322Z,62.00
2019-01-31T11:59:57.607Z,62.70
2019-01-31T12:02:54.700Z,63.00
2019-01-31T12:05:35.155Z,62.60
2019-01-31T12:08:22.936Z,61.70
2019-01-31T12:11:10.738Z,61.70
2019-01-31T12:13:58.514Z,62.50
2019-01-31T12:16:46.308Z,61.20
2019-01-31T12:19:34.173Z,61.00
2019-01-31T12:22:21.932Z,60.80
2019-01-31T12:25:09.807Z,61.00
2019-01-31T12:27:57.651Z,60.00
2019-01-31T12:30:45.467Z,59.60
2019-01-31T12:33:33.249Z,59.70
2019-01-31T12:36:21.030Z,59.50
2019-01-31T12:39:08.867Z,59.60
2019-01-31T12:41:56.847Z,59.00
2019-01-31T12:44:44.606Z,59.10
2019-01-31T12:47:32.395Z,59.00
2019-01-31T12:50:40.973Z,59.00
2019-01-31T12:53:21.655Z,58.80
2019-01-31T12:56:02.204Z,58.30
2019-01-31T12:58:43.074Z,58.30
2019-01-31T13:01:23.915Z,59.40
2019-01-31T13:04:04.386Z,58.70
2019-01-31T13:06:45.155Z,59.10
2019-01-31T13:09:28.198Z,58.60
2019-01-31T13:12:08.359Z,58.40
2019-01-31T13:17:32.140Z,58.30
2019-01-31T13:22:55.958Z,58.30
2019-01-31T13:25:36.617Z,58.50
2019-01-31T13:28:16.998Z,58.30
2019-01-31T13:30:57.862Z,58.00
2019-01-31T13:33:38.286Z,57.90
2019-01-31T13:36:19.030Z,57.80
2019-01-31T13:38:59.443Z,57.90
2019-01-31T13:41:41.991Z,57.50
2019-01-31T13:44:22.866Z,57.20
2019-01-31T13:47:03.696Z,57.60
2019-01-31T13:49:44.248Z,57.60
2019-01-31T13:52:24.893Z,57.50
2019-01-31T13:55:05.675Z,57.20
2019-01-31T13:57:46.471Z,57.30
2019-01-31T14:00:27.248Z,57.60
2019-01-31T14:03:07.784Z,56.30
2019-01-31T14:08:31.537Z,56.50
2019-01-31T14:11:12.315Z,56.80
2019-01-31T14:13:40.764Z,57.30
2019-01-31T14:16:48.171Z,57.40
2019-01-31T14:19:36.028Z,56.40
2019-01-31T14:22:23.840Z,57.50
2019-01-31T14:25:11.834Z,56.80
2019-01-31T14:27:59.618Z,57.00
2019-01-31T14:30:47.384Z,57.40
2019-01-31T14:33:35.239Z,56.40
2019-01-31T14:36:23.082Z,56.60
2019-01-31T14:39:10.876Z,56.90
2019-01-31T14:41:58.648Z,57.00
2019-01-31T14:44:46.438Z,57.20
2019-01-31T14:47:34.217Z,58.20
2019-01-31T14:50:42.798Z,57.60
2019-01-31T14:53:23.271Z,58.50
2019-01-31T14:56:03.952Z,58.00
2019-01-31T14:58:45.077Z,58.00
2019-01-31T15:01:26.283Z,56.80
2019-01-31T15:04:07.027Z,57.10
2019-01-31T15:06:47.547Z,57.60
2019-01-31T15:09:28.374Z,58.40
2019-01-31T15:12:08.837Z,57.10
2019-01-31T15:14:49.734Z,57.50
2019-01-31T15:17:30.190Z,57.00
2019-01-31T15:19:58.649Z,57.10
2019-01-31T15:22:46.487Z,57.40
2019-01-31T15:25:34.284Z,56.80
2019-01-31T15:28:22.146Z,56.80
2019-01-31T15:31:09.997Z,57.20
2019-01-31T15:33:57.801Z,57.70
2019-01-31T15:36:45.580Z,57.10
2019-01-31T15:39:33.350Z,57.60
2019-01-31T15:42:21.190Z,57.80
2019-01-31T15:45:09.301Z,58.10
2019-01-31T15:47:57.208Z,58.20
2019-01-31T15:50:45.041Z,56.90
2019-01-31T15:53:25.664Z,57.70
2019-01-31T15:56:06.373Z,57.80
2019-01-31T15:58:46.912Z,57.40
2019-01-31T16:01:27.808Z,56.70
2019-01-31T16:04:08.654Z,56.50
2019-01-31T16:06:49.515Z,57.50
2019-01-31T16:09:30.266Z,57.30
2019-01-31T16:12:11.379Z,55.90
2019-01-31T16:14:54.866Z,56.70
2019-01-31T16:17:35.285Z,56.40
2019-01-31T16:20:16.225Z,57.20
2019-01-31T16:25:39.827Z,56.10
2019-01-31T16:28:20.932Z,56.20
2019-01-31T16:31:02.028Z,55.70
2019-01-31T16:33:30.530Z,55.90
2019-01-31T16:36:18.322Z,55.80
2019-01-31T16:39:26.871Z,55.60
2019-01-31T16:42:14.816Z,57.20
2019-01-31T16:45:06.877Z,55.70
2019-01-31T16:47:52.227Z,56.10
2019-01-31T16:50:40.004Z,56.60
2019-01-31T16:53:21.579Z,55.20
2019-01-31T16:55:50.015Z,55.50
2019-01-31T16:58:37.883Z,56.00
2019-01-31T17:01:25.684Z,55.30
2019-01-31T17:04:13.442Z,55.40
2019-01-31T17:07:01.358Z,56.20
2019-01-31T17:09:49.260Z,55.50
2019-01-31T17:12:37.064Z,55.30
2019-01-31T17:15:25.107Z,55.40
2019-01-31T17:18:12.916Z,55.40
2019-01-31T17:21:00.677Z,55.60
2019-01-31T17:23:48.471Z,55.70
2019-01-31T17:26:36.244Z,55.60
2019-01-31T17:29:45.088Z,55.80
2019-01-31T17:32:32.972Z,55.30
2019-01-31T17:35:20.870Z,55.80
2019-01-31T17:40:56.122Z,55.20
2019-01-31T17:43:44.274Z,56.10
2019-01-31T17:46:32.237Z,57.00
2019-01-31T17:49:20.034Z,56.80
2019-01-31T17:52:07.819Z,56.30
2019-01-31T17:54:56.152Z,56.90
2019-01-31T17:57:45.178Z,56.60
2019-01-31T18:00:53.913Z,55.90
2019-01-31T18:03:41.772Z,57.10
2019-01-31T18:06:29.561Z,56.40
2019-01-31T18:09:17.447Z,56.70
2019-01-31T18:12:05.305Z,56.60
2019-01-31T18:14:53.099Z,56.70
2019-01-31T18:17:40.875Z,56.50
2019-01-31T18:20:28.722Z,57.00
2019-01-31T18:22:57.157Z,57.20
2019-01-31T18:25:25.680Z,57.90
2019-01-31T18:28:13.443Z,58.50
2019-01-31T18:30:41.958Z,57.80
2019-01-31T18:33:10.434Z,59.00
2019-01-31T18:35:58.228Z,59.20
2019-01-31T18:38:46.006Z,59.10
2019-01-31T18:41:33.799Z,58.90
2019-01-31T18:44:21.594Z,59.30
2019-01-31T18:47:21.328Z,59.50
2019-01-31T18:49:58.877Z,60.60
2019-01-31T18:52:46.326Z,60.80
2019-01-31T18:55:31.633Z,60.70
2019-01-31T18:58:12.522Z,61.50
2019-01-31T19:00:52.876Z,61.70
2019-01-31T19:03:33.893Z,60.70
2019-01-31T19:06:23.144Z,60.80
2019-01-31T19:12:17.974Z,62.00
2019-01-31T19:15:26.515Z,61.30
2019-01-31T19:18:14.527Z,60.80
2019-01-31T19:21:02.322Z,60.90
2019-01-31T19:23:50.099Z,60.70
2019-01-31T19:26:37.958Z,61.60
2019-01-31T19:32:34.267Z,60.60
2019-01-31T19:35:22.123Z,60.50
2019-01-31T19:38:09.898Z,60.00
2019-01-31T19:40:57.700Z,61.20
2019-01-31T19:46:52.422Z,61.60
2019-01-31T19:49:40.211Z,61.60
2019-01-31T19:52:21.646Z,60.40
2019-01-31T19:55:02.506Z,61.40
2019-01-31T19:57:43.079Z,61.40
2019-01-31T20:00:24.044Z,60.40
2019-01-31T20:03:04.716Z,60.40
2019-01-31T20:05:45.785Z,59.80
2019-01-31T20:08:26.789Z,60.30
2019-01-31T20:11:07.837Z,59.70
2019-01-31T20:13:55.803Z,61.10
2019-01-31T20:16:43.719Z,60.80
2019-01-31T20:19:31.826Z,59.80
2019-01-31T20:22:19.704Z,59.80
2019-01-31T20:25:40.545Z,60.60
2019-01-31T20:28:32.292Z,59.50
2019-01-31T20:31:07.996Z,59.10
2019-01-31T20:33:55.951Z,60.00
2019-01-31T20:36:43.873Z,59.40
2019-01-31T20:39:31.883Z,58.70
2019-01-31T20:42:19.892Z,59.60
2019-01-31T20:45:28.458Z,59.20
2019-01-31T20:48:30.444Z,59.00
2019-01-31T20:51:06.039Z,59.10
2019-01-31T20:53:47.185Z,59.00
2019-01-31T20:56:28.130Z,59.50
2019-01-31T20:59:08.969Z,59.90
2019-01-31T21:01:49.584Z,59.10
2019-01-31T21:04:30.333Z,59.00
2019-01-31T21:07:11.082Z,59.40
2019-01-31T21:09:51.831Z,59.30
2019-01-31T21:12:32.502Z,59.80
2019-01-31T21:15:13.452Z,60.00
2019-01-31T21:17:54.265Z,59.90
2019-01-31T21:20:34.875Z,58.90
2019-01-31T21:23:16.078Z,59.10
2019-01-31T21:25:57.112Z,58.50
2019-01-31T21:28:37.526Z,58.90
2019-01-31T21:31:18.194Z,58.90
2019-01-31T21:33:58.942Z,58.10
2019-01-31T21:36:39.793Z,57.60
2019-01-31T21:39:20.367Z,58.00
2019-01-31T21:42:00.968Z,57.70
2019-01-31T21:44:41.561Z,58.20
2019-01-31T21:47:22.863Z,58.00
2019-01-31T21:50:03.562Z,58.20
2019-01-31T21:52:44.124Z,57.40
2019-01-31T21:58:07.728Z,57.10
2019-01-31T22:00:48.333Z,57.60
2019-01-31T22:03:29.400Z,56.50
2019-01-31T22:08:40.290Z,57.00
2019-01-31T22:11:28.076Z,56.80
2019-01-31T22:14:15.868Z,56.20
2019-01-31T22:17:13.859Z,56.20
2019-01-31T22:19:53.146Z,56.00
2019-01-31T22:22:40.992Z,55.80
2019-01-31T22:25:28.774Z,56.80
2019-01-31T22:28:16.579Z,56.60
2019-01-31T22:31:04.410Z,56.80
2019-01-31T22:33:52.209Z,56.20
2019-01-31T22:39:27.530Z,55.80
2019-01-31T22:42:15.367Z,56.40
2019-01-31T22:45:03.714Z,56.70
2019-01-31T22:47:51.547Z,55.80
2019-01-31T22:50:39.336Z,55.30
2019-01-31T22:53:20.538Z,55.60
2019-01-31T22:56:01.358Z,55.30
2019-01-31T22:58:29.807Z,55.30
2019-01-31T23:04:17.065Z,56.30
2019-01-31T23:07:04.904Z,56.30
2019-01-31T23:09:52.679Z,55.40
2019-01-31T23:12:40.642Z,55.50
2019-01-31T23:15:28.431Z,55.60
2019-01-31T23:18:16.207Z,55.50
2019-01-31T23:21:04.461Z,56.30
2019-01-31T23:23:52.230Z,55.10
2019-01-31T23:26:40.026Z,55.50
2019-01-31T23:29:27.910Z,55.60
2019-01-31T23:32:17.315Z,55.80
2019-01-31T23:35:25.919Z,55.30
2019-01-31T23:38:13.699Z,55.50
2019-01-31T23:41:01.559Z,55.20
2019-01-31T23:43:49.324Z,55.70
2019-01-31T23:46:37.117Z,54.90
2019-01-31T23:49:24.877Z,55.30
2019-01-31T23:52:12.668Z,55.20
2019-01-31T23:55:00.529Z,54.90
2019-01-31T23:57:48.346Z,55.60
